Time;durP1;ratioP1;P1;durP2;ratioP2;P2;SDS_P1;SDS_P2;PMS_P1;PMS_P2;Temp;Humidity;BMP_temperature;BMP_pressure;BME280_temperature;BME280_humidity;BME280_pressure;Samples;Min_cycle;Max_cycle;Signal;HPM_P1;HPM_P2
2023/11/24 00:00:14;;;;;;;19.65;2.25;;;;;;;-146.27;73.90;32493.84;5097383;28;20028;-68
2023/11/24 00:02:40;;;;;;;16.88;2.45;;;;;;;-146.27;73.31;32583.13;5092152;28;20020;-68
2023/11/24 00:05:07;;;;;;;12.50;2.55;;;;;;;-146.27;71.69;32547.41;5093049;28;20017;-68
2023/11/24 00:07:34;;;;;;;17.75;2.15;;;;;;;-146.27;71.03;32541.47;5102369;28;20068;-68
2023/11/24 00:10:00;;;;;;;6.90;1.50;;;;;;;-146.27;70.61;32557.31;5094502;28;20028;-69
2023/11/24 00:12:26;;;;;;;16.23;4.15;;;;;;;-146.27;70.59;32555.34;5112094;28;20023;-69
2023/11/24 00:14:51;;;;;;;18.27;3.22;;;;;;;-146.27;70.01;32551.38;5096363;28;20119;-69
2023/11/24 00:17:17;;;;;;;6.90;1.27;;;;;;;-146.27;68.84;32541.47;5106779;28;20555;-68
2023/11/24 00:19:42;;;;;;;10.65;5.03;;;;;;;-146.27;68.50;32533.53;5096961;28;20078;-69
2023/11/24 00:22:08;;;;;;;13.07;3.78;;;;;;;-146.27;68.22;32487.91;5096059;28;20035;-67
2023/11/24 00:24:33;;;;;;;14.02;2.60;;;;;;;-146.27;67.97;32529.56;5101424;28;20023;-68
2023/11/24 00:27:00;;;;;;;14.88;5.32;;;;;;;-146.27;68.33;32551.38;5105203;28;20436;-68
2023/11/24 00:29:26;;;;;;;13.23;3.00;;;;;;;-146.27;68.17;32487.91;5091996;28;20039;-69
2023/11/24 00:31:51;;;;;;;10.20;1.70;;;;;;;-146.27;68.32;32575.19;5094203;28;20399;-70
2023/11/24 00:34:17;;;;;;;20.45;2.90;;;;;;;-146.27;68.09;32501.78;5091257;28;20031;-69
2023/11/24 00:36:42;;;;;;;19.40;2.78;;;;;;;-146.27;67.99;32507.72;5098919;28;20026;-69
2023/11/24 00:39:07;;;;;;;12.65;2.45;;;;;;;-146.27;68.69;32555.34;5108936;28;20020;-70
2023/11/24 00:41:33;;;;;;;13.15;4.63;;;;;;;-146.27;68.46;32430.38;5104421;28;20467;-69
2023/11/24 00:44:01;;;;;;;16.20;2.30;;;;;;;-146.27;68.98;32446.25;5110132;28;20043;-68
2023/11/24 00:46:28;;;;;;;29.25;4.72;;;;;;;-146.27;72.36;32563.28;5110591;28;20028;-68
2023/11/24 00:48:53;;;;;;;20.95;4.15;;;;;;;-146.27;74.71;32749.75;5091766;28;20118;-68
2023/11/24 00:51:18;;;;;;;17.42;3.60;;;;;;;-146.27;77.24;32823.16;5101533;28;20111;-69
2023/11/24 00:53:44;;;;;;;23.15;9.50;;;;;;;-146.27;78.26;32850.94;5105100;28;20372;-67
2023/11/24 00:56:09;;;;;;;32.28;14.70;;;;;;;-146.27;79.31;32910.44;5108357;28;20024;-68
2023/11/24 00:58:35;;;;;;;8.20;2.42;;;;;;;-146.27;80.26;32946.16;5101580;28;20378;-71
2023/11/24 01:01:03;;;;;;;17.05;3.88;;;;;;;-146.27;81.63;33009.66;5102731;28;20420;-69
2023/11/24 01:03:28;;;;;;;16.58;2.30;;;;;;;-146.27;83.50;33132.66;5092210;28;20438;-69
2023/11/24 01:05:53;;;;;;;10.18;1.98;;;;;;;-146.27;84.08;32997.75;5092106;28;20050;-69
2023/11/24 01:08:20;;;;;;;13.70;1.80;;;;;;;-146.27;84.20;33077.09;5093711;28;20467;-68
2023/11/24 01:10:46;;;;;;;9.52;1.77;;;;;;;-146.27;83.53;33150.50;5100095;28;20498;-69
2023/11/24 01:13:11;;;;;;;16.45;2.55;;;;;;;-146.27;83.12;33100.91;5076392;28;20305;-69
2023/11/24 01:15:37;;;;;;;15.07;1.80;;;;;;;-146.27;83.01;33136.63;5092410;28;20028;-70
2023/11/24 01:18:03;;;;;;;14.82;2.00;;;;;;;-146.27;82.71;33148.53;5091983;28;20046;-69
2023/11/24 01:20:28;;;;;;;13.13;1.65;;;;;;;-146.27;83.58;33176.31;5105356;28;20595;-70
2023/11/24 01:22:54;;;;;;;9.30;2.10;;;;;;;-146.27;83.31;33152.50;5090771;28;20376;-69
2023/11/24 01:25:19;;;;;;;18.23;3.67;;;;;;;-146.27;83.53;33069.16;5094857;28;20066;-67
2023/11/24 01:27:45;;;;;;;10.38;1.10;;;;;;;-146.27;83.93;33166.38;5106604;28;20031;-68
2023/11/24 01:30:11;;;;;;;11.32;2.22;;;;;;;-146.27;84.43;33069.16;5095584;27;20084;-68
2023/11/24 01:32:37;;;;;;;7.45;1.35;;;;;;;-146.27;83.36;33049.31;5091189;28;20428;-68
2023/11/24 01:35:02;;;;;;;10.10;2.63;;;;;;;-146.27;83.28;33073.13;5091813;28;20103;-69
2023/11/24 01:37:28;;;;;;;11.23;1.55;;;;;;;-146.27;83.39;33045.34;5101971;28;20038;-68
2023/11/24 01:39:53;;;;;;;17.80;1.90;;;;;;;-146.27;83.53;33071.16;5098376;28;20069;-69
2023/11/24 01:42:19;;;;;;;5.30;1.48;;;;;;;-146.27;83.90;33085.03;5109562;28;20031;-69
2023/11/24 01:44:45;;;;;;;10.57;1.40;;;;;;;-146.27;84.69;33112.81;5106626;28;20027;-69
2023/11/24 01:47:11;;;;;;;8.93;1.25;;;;;;;-146.27;85.21;33096.94;5099534;28;20503;-68
2023/11/24 01:49:38;;;;;;;23.60;5.35;;;;;;;-146.27;85.40;33092.97;5090591;28;20059;-68
2023/11/24 01:52:05;;;;;;;11.10;3.60;;;;;;;-146.27;84.99;33047.34;5090323;28;20034;-69
2023/11/24 01:54:36;;;;;;;19.42;2.10;;;;;;;-146.27;84.98;33092.97;5090970;28;20023;-69
2023/11/24 01:57:05;;;;;;;12.18;2.25;;;;;;;-146.27;85.03;33077.09;5107589;28;20398;-70
2023/11/24 01:59:32;;;;;;;4.97;0.88;;;;;;;-146.27;84.79;33045.34;5091396;28;20481;-68
2023/11/24 02:01:57;;;;;;;19.02;1.35;;;;;;;-146.27;84.99;33061.22;5103717;28;20537;-69
2023/11/24 02:04:23;;;;;;;17.48;1.65;;;;;;;-146.27;84.73;33049.31;5093877;28;20031;-70
2023/11/24 02:06:49;;;;;;;7.50;1.38;;;;;;;-146.27;84.80;32983.84;5081848;28;20024;-70
2023/11/24 02:09:15;;;;;;;18.15;1.95;;;;;;;-146.27;84.77;33069.16;5095458;28;20402;-69
2023/11/24 02:11:41;;;;;;;15.13;1.90;;;;;;;-146.27;84.69;33011.63;5109496;28;20023;-69
2023/11/24 02:14:06;;;;;;;7.78;1.48;;;;;;;-146.27;84.35;33073.13;5103190;28;20028;-71
2023/11/24 02:16:31;;;;;;;15.23;1.85;;;;;;;-146.27;83.88;33023.53;5090518;28;20078;-68
2023/11/24 02:18:57;;;;;;;14.15;1.23;;;;;;;-146.27;83.08;33047.34;5089948;28;20044;-69
2023/11/24 02:21:22;;;;;;;9.75;1.05;;;;;;;-146.27;82.85;33043.38;5093191;28;20111;-68
2023/11/24 02:23:50;;;;;;;12.18;1.77;;;;;;;-146.27;82.58;33069.16;5097751;28;20111;-68
2023/11/24 02:26:15;;;;;;;19.33;2.88;;;;;;;-146.27;82.90;33065.19;5090672;28;20031;-68
2023/11/24 02:28:40;;;;;;;10.23;1.80;;;;;;;-146.27;82.20;33039.41;5096086;28;20395;-68
2023/11/24 02:31:07;;;;;;;10.85;1.60;;;;;;;-146.27;81.51;33069.16;5105592;28;20106;-69
2023/11/24 02:33:33;;;;;;;7.63;1.60;;;;;;;-146.27;80.66;32928.31;5100435;28;20043;-69
2023/11/24 02:36:05;;;;;;;8.50;1.40;;;;;;;-146.27;80.10;33057.25;5101572;28;20082;-69
2023/11/24 02:38:32;;;;;;;9.65;1.25;;;;;;;-146.27;79.75;33047.34;5107389;28;20122;-68
2023/11/24 02:40:57;;;;;;;8.38;1.52;;;;;;;-146.27;78.95;33053.28;5094639;28;20055;-69
2023/11/24 02:43:23;;;;;;;16.08;1.70;;;;;;;-146.27;78.45;33073.13;5097680;28;20512;-68
2023/11/24 02:45:48;;;;;;;12.63;1.50;;;;;;;-146.27;77.74;33047.34;5096114;28;20030;-69
2023/11/24 02:48:13;;;;;;;7.22;1.38;;;;;;;-146.27;76.71;33065.19;5102568;28;20106;-68
2023/11/24 02:50:39;;;;;;;3.58;0.80;;;;;;;-146.27;75.54;33081.06;5112725;28;20028;-69
2023/11/24 02:53:04;;;;;;;8.15;1.13;;;;;;;-146.27;74.93;33049.31;5113573;28;20111;-68
2023/11/24 02:55:30;;;;;;;7.88;1.20;;;;;;;-146.27;75.19;33001.72;5095642;28;20710;-69
2023/11/24 02:57:55;;;;;;;6.35;1.58;;;;;;;-146.27;74.40;32993.78;5094639;28;20111;-70
2023/11/24 03:00:20;;;;;;;11.57;1.98;;;;;;;-146.27;74.33;32987.81;5100763;28;20051;-70
2023/11/24 03:02:46;;;;;;;11.57;1.58;;;;;;;-146.27;74.06;32979.88;5099984;28;20432;-69
2023/11/24 03:05:11;;;;;;;10.65;1.50;;;;;;;-146.27;73.56;33021.53;5092881;28;20028;-72
2023/11/24 03:07:37;;;;;;;10.45;1.58;;;;;;;-146.27;73.31;33059.25;5093212;28;20483;-69
2023/11/24 03:10:04;;;;;;;9.52;1.88;;;;;;;-146.27;72.31;33029.47;5097074;28;20094;-69
2023/11/24 03:12:29;;;;;;;8.75;2.17;;;;;;;-146.27;72.18;32938.22;5111712;28;20036;-70
2023/11/24 03:14:55;;;;;;;9.70;2.58;;;;;;;-146.27;70.65;33001.72;5096703;28;20023;-69
2023/11/24 03:17:23;;;;;;;12.80;2.63;;;;;;;-146.27;69.99;33011.63;5093387;28;20494;-68
2023/11/24 03:19:48;;;;;;;11.32;1.70;;;;;;;-146.27;69.10;33059.25;5092926;28;20024;-68
2023/11/24 03:22:15;;;;;;;12.90;2.28;;;;;;;-146.27;68.96;33003.69;5096971;28;20138;-68
2023/11/24 03:24:40;;;;;;;7.88;1.98;;;;;;;-146.27;68.70;32977.91;5097828;28;20042;-71
2023/11/24 03:27:06;;;;;;;13.65;1.52;;;;;;;-146.27;68.57;32852.91;5083224;28;20462;-70
2023/11/24 03:29:36;;;;;;;8.93;1.58;;;;;;;-146.27;68.74;32924.34;5092865;28;20027;-70
2023/11/24 03:32:02;;;;;;;12.18;1.30;;;;;;;-146.27;69.11;32987.81;5102688;28;20104;-70
2023/11/24 03:34:28;;;;;;;7.32;1.30;;;;;;;-146.27;68.89;32966.00;5107308;28;20027;-69
2023/11/24 03:36:53;;;;;;;13.55;2.03;;;;;;;-146.27;69.51;32983.84;5103425;28;20101;-70
2023/11/24 03:39:21;;;;;;;9.48;1.88;;;;;;;-146.27;69.18;32938.22;5097534;28;20035;-69
2023/11/24 03:41:47;;;;;;;17.27;3.70;;;;;;;-146.27;68.96;32918.38;5091601;28;20536;-71
2023/11/24 03:44:12;;;;;;;9.10;2.60;;;;;;;-146.27;71.00;32924.34;5105406;28;20086;-69
2023/11/24 03:46:37;;;;;;;12.25;1.83;;;;;;;-146.27;72.93;32878.72;5099741;28;20119;-68
2023/11/24 03:49:03;;;;;;;12.93;1.55;;;;;;;-146.27;72.97;32916.41;5098603;28;20027;-68
2023/11/24 03:51:28;;;;;;;10.85;2.38;;;;;;;-146.27;71.93;32932.28;5099549;28;20028;-70
2023/11/24 03:53:53;;;;;;;11.65;1.50;;;;;;;-146.27;71.77;32954.09;5101577;28;20070;-69
2023/11/24 03:56:19;;;;;;;8.15;1.10;;;;;;;-146.27;71.09;32934.25;5105943;28;20441;-69
2023/11/24 03:58:45;;;;;;;15.63;2.47;;;;;;;-146.27;71.18;32934.25;5092028;28;20063;-67
2023/11/24 04:01:13;;;;;;;16.75;1.83;;;;;;;-146.27;70.82;32823.16;5105466;28;20627;-70
2023/11/24 04:03:42;;;;;;;19.27;1.65;;;;;;;-146.27;71.25;32892.59;5111079;28;20038;-70
2023/11/24 04:06:07;;;;;;;15.23;1.95;;;;;;;-146.27;71.57;32846.97;5097168;28;20028;-69
2023/11/24 04:08:32;;;;;;;11.80;1.77;;;;;;;-146.27;70.99;32886.63;5079933;28;20557;-70
2023/11/24 04:10:58;;;;;;;11.50;2.03;;;;;;;-146.27;70.15;32890.59;5111284;28;20023;-68
2023/11/24 04:13:23;;;;;;;8.90;1.65;;;;;;;-146.27;69.82;32894.56;5103055;28;20387;-69
2023/11/24 04:15:48;;;;;;;11.73;1.42;;;;;;;-146.27;69.72;32854.91;5099361;28;20519;-70
2023/11/24 04:18:14;;;;;;;17.33;1.88;;;;;;;-146.27;69.80;32839.03;5108712;28;20437;-68
2023/11/24 04:20:39;;;;;;;12.00;1.75;;;;;;;-146.27;70.91;32866.81;5088135;28;20028;-69
2023/11/24 04:23:07;;;;;;;11.60;1.67;;;;;;;-146.27;71.32;32854.91;5096025;28;20074;-69
2023/11/24 04:25:32;;;;;;;10.95;1.30;;;;;;;-146.27;70.75;32896.56;5073500;28;20468;-70
2023/11/24 04:27:57;;;;;;;9.10;1.77;;;;;;;-146.27;70.28;32866.81;5103292;28;20088;-69
2023/11/24 04:30:22;;;;;;;11.27;1.52;;;;;;;-146.27;69.99;32922.34;5097852;28;20052;-70
2023/11/24 04:32:48;;;;;;;12.88;1.75;;;;;;;-146.27;70.20;32878.72;5091753;28;20059;-69
2023/11/24 04:35:14;;;;;;;9.60;1.67;;;;;;;-146.27;70.09;32854.91;5097573;28;20036;-69
2023/11/24 04:37:39;;;;;;;8.60;1.35;;;;;;;-146.27;70.42;32848.94;5103306;28;20032;-71
2023/11/24 04:40:06;;;;;;;6.82;1.13;;;;;;;-146.27;69.88;32890.59;5092435;28;20035;-70
2023/11/24 04:42:32;;;;;;;8.32;1.77;;;;;;;-146.27;69.64;32934.25;5107462;28;20039;-70
2023/11/24 04:44:57;;;;;;;8.77;1.38;;;;;;;-146.27;69.42;32898.53;5105396;28;20023;-69
2023/11/24 04:47:22;;;;;;;10.52;2.47;;;;;;;-146.27;69.12;32910.44;5104810;28;20048;-70
2023/11/24 04:49:48;;;;;;;9.80;1.30;;;;;;;-146.27;68.91;32956.06;5112113;28;20012;-69
2023/11/24 04:52:13;;;;;;;8.65;1.45;;;;;;;-146.27;68.61;32918.38;5111238;28;20475;-70
2023/11/24 04:54:38;;;;;;;13.43;1.40;;;;;;;-146.27;67.69;32916.41;5099427;28;20105;-69
2023/11/24 04:57:05;;;;;;;11.43;1.30;;;;;;;-146.27;67.20;32886.63;5109273;28;20106;-71
2023/11/24 04:59:31;;;;;;;7.25;1.13;;;;;;;-146.27;66.42;33001.72;5107385;28;20024;-70
2023/11/24 05:01:57;;;;;;;8.32;1.25;;;;;;;-146.27;67.55;32930.28;5101838;28;20479;-70
2023/11/24 05:04:22;;;;;;;9.48;1.30;;;;;;;-146.27;67.76;32910.44;5109788;28;20030;-68
2023/11/24 05:06:47;;;;;;;8.27;1.08;;;;;;;-146.27;70.95;32969.97;5100340;28;20089;-70
2023/11/24 05:09:13;;;;;;;9.50;0.80;;;;;;;-146.27;73.86;33027.50;5090761;28;20031;-69
2023/11/24 05:11:38;;;;;;;6.60;1.67;;;;;;;-146.27;75.84;33144.56;5090824;28;20107;-69
2023/11/24 05:14:03;;;;;;;10.98;1.20;;;;;;;-146.27;77.82;33200.09;5101520;28;20031;-68
2023/11/24 05:16:29;;;;;;;8.18;1.20;;;;;;;-146.27;78.74;33212.00;5106997;28;20022;-68
2023/11/24 05:18:54;;;;;;;16.25;3.33;;;;;;;-146.27;79.16;33162.41;5108547;28;20058;-68
2023/11/24 05:21:20;;;;;;;7.43;1.13;;;;;;;-146.27;79.88;33172.34;5094439;28;20098;-69
2023/11/24 05:23:45;;;;;;;17.00;1.60;;;;;;;-146.27;79.80;33178.28;5097830;28;20061;-69
2023/11/24 05:26:10;;;;;;;7.90;1.63;;;;;;;-146.27;80.31;33164.41;5099433;28;20154;-71
2023/11/24 05:28:36;;;;;;;9.23;0.98;;;;;;;-146.27;80.47;33223.91;5110078;28;20020;-69
2023/11/24 05:31:04;;;;;;;12.55;2.33;;;;;;;-146.27;80.15;33210.03;5086714;28;20034;-70
2023/11/24 05:33:30;;;;;;;13.48;1.38;;;;;;;-146.27;79.09;33188.19;5103498;28;20016;-69
2023/11/24 05:35:57;;;;;;;13.45;2.67;;;;;;;-146.27;77.56;33221.94;5107238;28;20046;-68
2023/11/24 05:38:22;;;;;;;7.95;1.10;;;;;;;-146.27;75.55;33208.03;5108154;28;20023;-67
2023/11/24 05:40:49;;;;;;;11.75;1.35;;;;;;;-146.27;72.28;33212.00;5105053;28;20085;-68
2023/11/24 05:43:15;;;;;;;9.82;1.15;;;;;;;-146.27;70.57;33237.81;5073129;28;20416;-69
2023/11/24 05:45:40;;;;;;;16.60;1.35;;;;;;;-146.27;71.59;33176.31;5099787;28;20024;-69
2023/11/24 05:48:06;;;;;;;9.40;1.58;;;;;;;-146.27;72.08;33174.31;5088993;28;20027;-69
2023/11/24 05:50:31;;;;;;;7.85;1.27;;;;;;;-146.27;73.83;33152.50;5108409;28;20372;-69
2023/11/24 05:52:56;;;;;;;5.60;0.95;;;;;;;-146.27;74.47;33223.91;5104314;28;20020;-70
2023/11/24 05:55:22;;;;;;;7.50;0.73;;;;;;;-146.27;73.40;33208.03;5098559;28;20020;-68
2023/11/24 05:57:47;;;;;;;5.43;1.05;;;;;;;-146.27;72.96;33247.72;5082622;28;20027;-69
2023/11/24 06:00:17;;;;;;;8.05;1.52;;;;;;;-146.27;73.32;33212.00;5101119;28;20019;-69
2023/11/24 06:02:43;;;;;;;10.40;1.27;;;;;;;-146.27;71.91;33221.94;5090238;28;20151;-68
2023/11/24 06:05:08;;;;;;;17.52;1.60;;;;;;;-146.27;71.55;33243.75;5091011;28;20091;-68
2023/11/24 06:07:34;;;;;;;12.25;1.55;;;;;;;-146.27;71.58;33196.13;5099666;28;20157;-69
2023/11/24 06:09:59;;;;;;;9.30;1.23;;;;;;;-146.27;70.81;33162.41;5094013;28;20400;-70
2023/11/24 06:12:25;;;;;;;12.63;1.45;;;;;;;-146.27;70.34;33146.53;5098949;28;20498;-70
2023/11/24 06:14:50;;;;;;;7.90;2.40;;;;;;;-146.27;69.49;33138.59;5095734;28;20427;-70
2023/11/24 06:17:15;;;;;;;14.85;1.67;;;;;;;-146.27;68.51;33075.13;5089671;28;20028;-68
2023/11/24 06:19:41;;;;;;;9.80;1.48;;;;;;;-146.27;66.52;33098.94;5099543;28;20467;-68
2023/11/24 06:22:06;;;;;;;8.75;1.60;;;;;;;-146.27;66.81;33081.06;5094863;28;20032;-69
2023/11/24 06:24:31;;;;;;;14.05;1.50;;;;;;;-146.27;65.51;33059.25;5095273;28;20028;-69
2023/11/24 06:26:57;;;;;;;8.25;1.60;;;;;;;-146.27;64.28;33089.00;5097050;28;20035;-68
2023/11/24 06:29:24;;;;;;;15.45;1.85;;;;;;;-146.27;62.53;33112.81;5092003;28;20035;-68
2023/11/24 06:31:49;;;;;;;8.55;1.65;;;;;;;-146.27;63.11;33059.25;5092804;28;20114;-68
2023/11/24 06:34:15;;;;;;;14.68;1.65;;;;;;;-146.27;63.44;33089.00;5092642;28;20123;-69
2023/11/24 06:36:40;;;;;;;12.40;1.75;;;;;;;-146.27;63.68;32967.97;5098073;28;20031;-70
2023/11/24 06:39:10;;;;;;;9.38;0.90;;;;;;;-146.27;64.10;33003.69;5108224;28;20027;-69
2023/11/24 06:41:36;;;;;;;10.90;1.55;;;;;;;-146.27;63.94;33015.59;5095339;28;20032;-69
2023/11/24 06:44:02;;;;;;;13.00;2.35;;;;;;;-146.27;67.64;33069.16;5109116;28;20395;-69
2023/11/24 06:46:27;;;;;;;12.27;1.50;;;;;;;-146.27;71.11;33120.75;5105645;28;20023;-69
2023/11/24 06:48:52;;;;;;;12.00;1.42;;;;;;;-146.27;73.62;33112.81;5080957;28;20131;-71
2023/11/24 06:51:19;;;;;;;6.45;1.02;;;;;;;-146.27;74.29;33142.56;5098479;28;20700;-69
2023/11/24 06:53:45;;;;;;;9.43;1.35;;;;;;;-146.27;74.91;33166.38;5096318;28;20024;-70
2023/11/24 06:56:11;;;;;;;5.35;1.40;;;;;;;-146.27;75.46;33202.09;5092095;28;20142;-69
2023/11/24 06:58:37;;;;;;;8.38;1.85;;;;;;;-146.27;75.84;33210.03;5106792;28;20051;-70
2023/11/24 07:01:04;;;;;;;6.30;1.50;;;;;;;-146.27;75.83;33227.88;5101635;28;20703;-71
2023/11/24 07:03:33;;;;;;;14.30;1.27;;;;;;;-146.27;76.55;33243.75;5089994;28;20549;-69
2023/11/24 07:06:00;;;;;;;8.88;1.00;;;;;;;-146.27;79.57;33386.63;5108231;28;20027;-70
2023/11/24 07:08:27;;;;;;;9.15;1.35;;;;;;;-146.27;81.91;33410.44;5090730;28;20042;-70
2023/11/24 07:10:53;;;;;;;14.35;2.05;;;;;;;-146.27;82.56;33386.63;5100341;28;20050;-71
2023/11/24 07:13:18;;;;;;;7.40;1.13;;;;;;;-146.27;84.01;33438.19;5097968;28;20054;-70
2023/11/24 07:15:44;;;;;;;12.63;1.60;;;;;;;-146.27;83.89;33412.41;5095925;28;20684;-69
2023/11/24 07:18:09;;;;;;;8.95;1.23;;;;;;;-146.27;84.11;33481.84;5095717;28;20032;-69
2023/11/24 07:20:35;;;;;;;6.88;1.10;;;;;;;-146.27;83.62;33426.28;5101448;28;20028;-70
2023/11/24 07:23:00;;;;;;;13.38;1.30;;;;;;;-146.27;83.73;33337.00;5099816;28;20028;-71
2023/11/24 07:25:26;;;;;;;10.13;1.10;;;;;;;-146.27;83.50;33340.97;5097439;28;20027;-71
2023/11/24 07:27:51;;;;;;;13.35;1.45;;;;;;;-146.27;83.80;33360.81;5113425;28;20489;-69
2023/11/24 07:30:19;;;;;;;4.20;1.00;;;;;;;-146.27;84.05;33340.97;5104668;28;20066;-69
2023/11/24 07:32:44;;;;;;;8.82;1.52;;;;;;;-146.27;84.75;33354.88;5093343;28;20024;-69
2023/11/24 07:35:10;;;;;;;9.73;2.00;;;;;;;-146.27;84.69;33406.47;5092430;28;20019;-70
2023/11/24 07:37:36;;;;;;;10.02;0.85;;;;;;;-146.27;83.67;33422.34;5091865;28;20779;-70
2023/11/24 07:40:07;;;;;;;4.25;1.40;;;;;;;-146.27;84.13;33493.75;5094049;28;20119;-69
2023/11/24 07:42:33;;;;;;;8.40;1.02;;;;;;;-146.27;84.99;33444.16;5093088;28;20024;-70
2023/11/24 07:44:59;;;;;;;6.60;0.88;;;;;;;-146.27;84.83;33462.00;5093745;28;20044;-69
2023/11/24 07:47:24;;;;;;;15.63;1.95;;;;;;;-146.27;85.45;33501.69;5093624;28;20066;-68
2023/11/24 07:49:49;;;;;;;14.55;1.48;;;;;;;-146.27;86.32;33497.72;5100685;28;20019;-69
2023/11/24 07:52:15;;;;;;;12.80;1.38;;;;;;;-146.27;85.71;33481.84;5082281;28;20045;-69
2023/11/24 07:54:40;;;;;;;9.30;1.40;;;;;;;-146.27;85.36;33406.47;5100238;28;20043;-68
2023/11/24 07:57:07;;;;;;;6.40;1.25;;;;;;;-146.27;85.28;33442.16;5092113;28;20040;-68
2023/11/24 07:59:33;;;;;;;7.93;1.00;;;;;;;-146.27;85.47;33422.34;5108281;28;20028;-69
2023/11/24 08:01:58;;;;;;;8.82;0.73;;;;;;;-146.27;85.31;33406.47;5098969;28;20023;-69
2023/11/24 08:04:24;;;;;;;13.30;1.80;;;;;;;-146.27;84.94;33402.50;5101386;28;20430;-68
2023/11/24 08:06:51;;;;;;;7.63;1.55;;;;;;;-146.27;85.43;33438.19;5098826;28;20012;-68
2023/11/24 08:09:20;;;;;;;7.30;0.85;;;;;;;-146.27;84.43;33446.13;5095372;28;20043;-67
2023/11/24 08:11:46;;;;;;;10.35;1.75;;;;;;;-146.27;84.80;33458.03;5096158;28;20449;-69
2023/11/24 08:14:12;;;;;;;13.13;2.47;;;;;;;-146.27;84.48;33422.34;5097621;28;20023;-70
2023/11/24 08:16:38;;;;;;;10.82;1.50;;;;;;;-146.27;85.47;33501.69;5097266;28;20363;-68
2023/11/24 08:19:03;;;;;;;15.65;1.15;;;;;;;-146.27;85.58;33410.44;5102198;28;20058;-68
2023/11/24 08:21:29;;;;;;;13.25;1.40;;;;;;;-146.27;85.61;33422.34;5096737;28;20422;-69
2023/11/24 08:23:54;;;;;;;12.32;1.00;;;;;;;-146.27;85.30;33412.41;5098070;28;20034;-69
2023/11/24 08:26:23;;;;;;;11.25;1.42;;;;;;;-146.27;84.50;33410.44;5098233;28;20411;-68
2023/11/24 08:28:49;;;;;;;6.43;0.80;;;;;;;-146.27;84.16;33458.03;5087447;28;20033;-69
2023/11/24 08:31:19;;;;;;;12.98;1.48;;;;;;;-146.27;84.23;33436.22;5095510;28;20119;-69
2023/11/24 08:33:45;;;;;;;9.10;1.40;;;;;;;-146.27;84.01;33462.00;5107439;28;20044;-68
2023/11/24 08:36:12;;;;;;;6.38;1.10;;;;;;;-146.27;83.93;33430.28;5093052;28;20479;-69
2023/11/24 08:38:38;;;;;;;10.13;1.30;;;;;;;-146.27;83.85;33426.28;5099793;28;20475;-69
2023/11/24 08:41:17;;;;;;;12.57;1.55;;;;;;;-146.27;83.62;33448.13;5101020;28;20024;-68
2023/11/24 08:43:44;;;;;;;11.40;1.73;;;;;;;-146.27;82.08;33420.34;5099449;27;20100;-69
2023/11/24 08:46:10;;;;;;;10.27;1.45;;;;;;;-146.27;82.06;33390.59;5101035;28;20016;-70
2023/11/24 08:48:37;;;;;;;13.48;1.27;;;;;;;-146.27;82.44;33448.13;5102860;28;20487;-69
2023/11/24 08:51:03;;;;;;;13.20;1.65;;;;;;;-146.27;82.30;33430.28;5105073;28;20027;-69
2023/11/24 08:53:29;;;;;;;16.27;1.83;;;;;;;-146.27;81.91;33354.88;5082789;28;20027;-69
2023/11/24 08:55:55;;;;;;;10.23;1.30;;;;;;;-146.27;81.45;33386.63;5104822;28;20024;-68
2023/11/24 08:58:20;;;;;;;9.45;1.10;;;;;;;-146.27;80.85;33380.66;5101634;28;20114;-69
2023/11/24 09:00:45;;;;;;;10.68;1.58;;;;;;;-146.27;80.17;33340.97;5084299;28;20043;-70
2023/11/24 09:03:12;;;;;;;14.85;1.27;;;;;;;-146.27;79.36;33319.16;5097027;28;20030;-70
2023/11/24 09:05:38;;;;;;;11.05;1.65;;;;;;;-146.27;79.08;33315.19;5090786;28;20023;-70
2023/11/24 09:08:05;;;;;;;9.10;1.33;;;;;;;-146.27;78.72;33303.28;5098409;28;20020;-69
2023/11/24 09:10:32;;;;;;;11.68;1.77;;;;;;;-146.27;77.32;33329.06;5100941;28;20161;-68
2023/11/24 09:12:57;;;;;;;10.48;1.45;;;;;;;-146.27;76.31;33307.25;5078661;28;20061;-68
2023/11/24 09:15:24;;;;;;;11.13;1.38;;;;;;;-146.27;75.10;33366.78;5096019;28;20549;-70
2023/11/24 09:17:49;;;;;;;16.25;1.70;;;;;;;-146.27;73.49;33319.16;5094349;28;20036;-68
2023/11/24 09:20:16;;;;;;;14.25;2.17;;;;;;;-146.27;73.31;33319.16;5102408;28;20102;-68
2023/11/24 09:22:43;;;;;;;12.88;1.83;;;;;;;-146.27;72.21;33323.13;5105592;28;20051;-69
2023/11/24 09:25:11;;;;;;;8.40;1.17;;;;;;;-146.27;71.83;33253.69;5093973;28;20051;-71
2023/11/24 09:27:40;;;;;;;1.65;0.60;;;;;;;-146.27;69.53;33269.56;5105539;28;20510;-68
2023/11/24 09:30:10;;;;;;;7.80;1.05;;;;;;;-146.27;68.36;33219.94;5081857;28;20495;-71
2023/11/24 09:32:37;;;;;;;6.53;0.98;;;;;;;-146.27;68.93;33227.88;5091646;28;20024;-69
2023/11/24 09:35:06;;;;;;;4.82;1.48;;;;;;;-146.27;68.91;33271.53;5076863;28;20510;-69
2023/11/24 09:37:33;;;;;;;7.70;1.20;;;;;;;-146.27;69.09;33160.44;5091275;28;20030;-68
2023/11/24 09:39:58;;;;;;;10.18;1.15;;;;;;;-146.27;69.06;33172.34;5094074;28;20055;-69
2023/11/24 09:42:30;;;;;;;11.50;1.48;;;;;;;-146.27;68.92;33100.91;5094089;27;20027;-68
2023/11/24 09:45:00;;;;;;;20.27;3.63;;;;;;;-146.27;69.20;33041.38;5105269;27;20034;-68
2023/11/24 09:47:26;;;;;;;29.35;6.82;;;;;;;-146.27;68.16;33059.25;5101270;28;20038;-68
2023/11/24 09:49:53;;;;;;;15.18;2.42;;;;;;;-146.27;67.26;33021.53;5103113;28;20399;-70
2023/11/24 09:52:21;;;;;;;22.08;6.85;;;;;;;-146.27;67.62;32914.41;5095744;27;20023;-69
2023/11/24 09:54:48;;;;;;;8.50;2.63;;;;;;;-146.27;64.32;32872.75;5094976;27;20028;-70
2023/11/24 09:57:13;;;;;;;12.00;1.83;;;;;;;-146.27;60.19;32922.34;5098865;28;20369;-69
2023/11/24 09:59:38;;;;;;;11.93;1.67;;;;;;;-146.27;58.95;32948.13;5098146;28;20341;-69
2023/11/24 10:02:07;;;;;;;9.18;1.63;;;;;;;-146.27;59.38;32954.09;5093410;28;20070;-70
2023/11/24 10:04:33;;;;;;;11.13;3.50;;;;;;;-146.27;60.45;32962.03;5095727;28;20114;-68
2023/11/24 10:06:58;;;;;;;17.27;2.05;;;;;;;-146.27;62.65;32954.09;5097708;28;20123;-68
2023/11/24 10:09:26;;;;;;;17.63;2.05;;;;;;;-146.27;63.27;32932.28;5106132;27;20454;-68
2023/11/24 10:11:51;;;;;;;8.50;2.03;;;;;;;-146.27;63.87;32969.97;5105005;27;20055;-69
2023/11/24 10:14:21;;;;;;;19.50;4.68;;;;;;;-146.27;64.47;33003.69;5095257;28;20376;-68
2023/11/24 10:16:48;;;;;;;14.38;2.92;;;;;;;-146.27;63.52;32989.81;5095887;28;20054;-69
2023/11/24 10:19:14;;;;;;;4.22;1.50;;;;;;;-146.27;64.14;32946.16;5103209;28;20120;-69
2023/11/24 10:21:43;;;;;;;15.50;4.50;;;;;;;-146.27;64.00;32989.81;5102978;28;20091;-70
2023/11/24 10:24:09;;;;;;;9.63;1.15;;;;;;;-146.27;62.85;33029.47;5092392;28;20023;-70
2023/11/24 10:26:34;;;;;;;10.82;2.42;;;;;;;-146.27;60.71;33019.56;5093417;28;20024;-70
2023/11/24 10:29:00;;;;;;;29.30;11.02;;;;;;;-146.27;61.12;33009.66;5106706;28;20019;-70
2023/11/24 10:31:26;;;;;;;15.77;4.35;;;;;;;-146.27;63.53;32989.81;5093724;28;20032;-68
2023/11/24 10:33:51;;;;;;;10.35;1.95;;;;;;;-146.27;62.20;32823.16;5102493;28;20031;-71
2023/11/24 10:36:19;;;;;;;11.82;1.98;;;;;;;-146.27;59.17;32708.09;5100832;28;20040;-71
2023/11/24 10:38:46;;;;;;;13.98;3.08;;;;;;;-146.27;56.32;32622.78;5096024;28;20035;-70
2023/11/24 10:41:22;;;;;;;6.70;2.00;;;;;;;-146.27;56.49;32698.19;5093360;28;20050;-72
2023/11/24 10:43:50;;;;;;;9.95;1.23;;;;;;;-146.27;58.76;32846.97;5098637;28;20658;-70
2023/11/24 10:46:20;;;;;;;12.15;1.70;;;;;;;-146.27;63.65;32932.28;5095580;28;20096;-70
2023/11/24 10:48:47;;;;;;;10.52;1.50;;;;;;;-146.27;66.52;33085.03;5091242;28;20032;-69
2023/11/24 10:51:41;;;;;;;6.20;0.95;;;;;;;-146.27;68.65;33087.03;5093912;28;20062;-70
2023/11/24 10:54:07;;;;;;;9.88;1.45;;;;;;;-146.27;69.76;33077.09;5101293;28;20069;-69
2023/11/24 10:56:36;;;;;;;12.18;2.20;;;;;;;-146.27;68.01;32960.03;5106413;28;20390;-71
2023/11/24 10:59:05;;;;;;;14.52;4.60;;;;;;;-146.27;66.71;32765.63;5105711;28;20019;-69
2023/11/24 11:01:31;;;;;;;8.75;1.65;;;;;;;-146.27;64.58;32593.03;5101144;27;20039;-69
2023/11/24 11:03:59;;;;;;;20.67;3.10;;;;;;;-146.27;62.49;32418.47;5099401;28;20024;-68
2023/11/24 11:06:42;;;;;;;11.63;2.20;;;;;;;-146.27;61.32;32303.41;5081831;28;20028;-68